sensor_id;sensor_type;location;lat;lon;timestamp;P1;durP1;ratioP1;P2;durP2;ratioP2
13834;SDS011;6988;52.614;13.500;2024-02-28T00:02:52;23.73;;;13.20;;
13834;SDS011;6988;52.614;13.500;2024-02-28T00:07:44;23.70;;;13.07;;
13834;SDS011;6988;52.614;13.500;2024-02-28T00:12:38;26.73;;;13.43;;
13834;SDS011;6988;52.614;13.500;2024-02-28T00:17:30;23.63;;;12.90;;
13834;SDS011;6988;52.614;13.500;2024-02-28T00:22:23;21.53;;;12.37;;
13834;SDS011;6988;52.614;13.500;2024-02-28T00:27:15;22.80;;;12.53;;
13834;SDS011;6988;52.614;13.500;2024-02-28T00:32:07;20.33;;;12.07;;
13834;SDS011;6988;52.614;13.500;2024-02-28T00:36:59;19.63;;;11.40;;
13834;SDS011;6988;52.614;13.500;2024-02-28T00:41:52;19.87;;;11.43;;
13834;SDS011;6988;52.614;13.500;2024-02-28T00:46:44;20.40;;;11.87;;
13834;SDS011;6988;52.614;13.500;2024-02-28T00:51:36;19.50;;;11.37;;
13834;SDS011;6988;52.614;13.500;2024-02-28T00:56:28;25.47;;;13.30;;
13834;SDS011;6988;52.614;13.500;2024-02-28T01:01:23;25.03;;;14.50;;
13834;SDS011;6988;52.614;13.500;2024-02-28T01:06:15;23.40;;;13.10;;
13834;SDS011;6988;52.614;13.500;2024-02-28T01:11:08;21.90;;;13.33;;
13834;SDS011;6988;52.614;13.500;2024-02-28T01:16:00;24.90;;;13.40;;
13834;SDS011;6988;52.614;13.500;2024-02-28T01:20:53;23.93;;;13.53;;
13834;SDS011;6988;52.614;13.500;2024-02-28T01:25:45;22.17;;;12.30;;
13834;SDS011;6988;52.614;13.500;2024-02-28T01:30:37;19.50;;;11.40;;
13834;SDS011;6988;52.614;13.500;2024-02-28T01:35:29;20.53;;;11.57;;
13834;SDS011;6988;52.614;13.500;2024-02-28T01:40:23;24.77;;;13.57;;
13834;SDS011;6988;52.614;13.500;2024-02-28T01:45:15;21.93;;;12.73;;
13834;SDS011;6988;52.614;13.500;2024-02-28T01:50:08;23.27;;;12.30;;
13834;SDS011;6988;52.614;13.500;2024-02-28T01:55:02;21.90;;;12.47;;
13834;SDS011;6988;52.614;13.500;2024-02-28T01:59:57;20.53;;;12.47;;
13834;SDS011;6988;52.614;13.500;2024-02-28T02:04:54;18.93;;;11.63;;
13834;SDS011;6988;52.614;13.500;2024-02-28T02:09:48;20.30;;;12.50;;
13834;SDS011;6988;52.614;13.500;2024-02-28T02:14:40;22.50;;;12.70;;
13834;SDS011;6988;52.614;13.500;2024-02-28T02:19:33;21.43;;;11.73;;
13834;SDS011;6988;52.614;13.500;2024-02-28T02:24:27;22.90;;;12.37;;
13834;SDS011;6988;52.614;13.500;2024-02-28T02:29:19;19.10;;;12.00;;
13834;SDS011;6988;52.614;13.500;2024-02-28T02:34:11;20.47;;;11.57;;
13834;SDS011;6988;52.614;13.500;2024-02-28T02:39:03;18.57;;;11.20;;
13834;SDS011;6988;52.614;13.500;2024-02-28T02:43:56;20.00;;;11.00;;
13834;SDS011;6988;52.614;13.500;2024-02-28T02:48:48;17.73;;;10.40;;
13834;SDS011;6988;52.614;13.500;2024-02-28T02:53:42;18.40;;;10.97;;
13834;SDS011;6988;52.614;13.500;2024-02-28T02:58:34;20.40;;;10.77;;
13834;SDS011;6988;52.614;13.500;2024-02-28T03:03:27;19.43;;;11.00;;
13834;SDS011;6988;52.614;13.500;2024-02-28T03:08:19;17.97;;;10.93;;
13834;SDS011;6988;52.614;13.500;2024-02-28T03:13:11;15.57;;;9.83;;
13834;SDS011;6988;52.614;13.500;2024-02-28T03:18:04;14.93;;;8.67;;
13834;SDS011;6988;52.614;13.500;2024-02-28T03:22:57;14.70;;;8.50;;
13834;SDS011;6988;52.614;13.500;2024-02-28T03:27:50;13.27;;;8.60;;
13834;SDS011;6988;52.614;13.500;2024-02-28T03:32:43;12.67;;;7.43;;
13834;SDS011;6988;52.614;13.500;2024-02-28T03:37:35;13.27;;;7.77;;
13834;SDS011;6988;52.614;13.500;2024-02-28T03:42:28;12.47;;;8.17;;
13834;SDS011;6988;52.614;13.500;2024-02-28T03:47:20;12.53;;;7.70;;
13834;SDS011;6988;52.614;13.500;2024-02-28T03:52:12;12.37;;;7.30;;
13834;SDS011;6988;52.614;13.500;2024-02-28T03:57:04;11.40;;;6.93;;
13834;SDS011;6988;52.614;13.500;2024-02-28T04:01:58;11.33;;;7.37;;
13834;SDS011;6988;52.614;13.500;2024-02-28T04:06:50;8.97;;;6.40;;
13834;SDS011;6988;52.614;13.500;2024-02-28T04:11:43;9.73;;;6.60;;
13834;SDS011;6988;52.614;13.500;2024-02-28T04:16:40;10.67;;;7.10;;
13834;SDS011;6988;52.614;13.500;2024-02-28T04:21:35;11.23;;;6.70;;
13834;SDS011;6988;52.614;13.500;2024-02-28T04:26:27;8.13;;;5.67;;
13834;SDS011;6988;52.614;13.500;2024-02-28T04:31:19;11.37;;;6.50;;
13834;SDS011;6988;52.614;13.500;2024-02-28T04:36:11;8.67;;;5.87;;
13834;SDS011;6988;52.614;13.500;2024-02-28T04:41:06;9.13;;;5.87;;
13834;SDS011;6988;52.614;13.500;2024-02-28T04:45:58;8.07;;;6.13;;
13834;SDS011;6988;52.614;13.500;2024-02-28T04:50:51;8.80;;;6.07;;
13834;SDS011;6988;52.614;13.500;2024-02-28T04:55:43;10.47;;;6.80;;
13834;SDS011;6988;52.614;13.500;2024-02-28T05:00:36;9.87;;;6.50;;
13834;SDS011;6988;52.614;13.500;2024-02-28T05:05:28;10.03;;;6.80;;
13834;SDS011;6988;52.614;13.500;2024-02-28T05:10:20;10.53;;;7.03;;
13834;SDS011;6988;52.614;13.500;2024-02-28T05:15:12;12.53;;;7.57;;
13834;SDS011;6988;52.614;13.500;2024-02-28T05:20:07;12.67;;;7.93;;
13834;SDS011;6988;52.614;13.500;2024-02-28T05:25:00;11.40;;;7.17;;
13834;SDS011;6988;52.614;13.500;2024-02-28T05:29:52;13.33;;;7.83;;
13834;SDS011;6988;52.614;13.500;2024-02-28T05:34:45;14.07;;;7.60;;
13834;SDS011;6988;52.614;13.500;2024-02-28T05:39:38;15.43;;;8.20;;
13834;SDS011;6988;52.614;13.500;2024-02-28T05:44:30;12.07;;;7.57;;
13834;SDS011;6988;52.614;13.500;2024-02-28T05:49:22;11.93;;;7.33;;
13834;SDS011;6988;52.614;13.500;2024-02-28T05:54:14;11.87;;;7.13;;
13834;SDS011;6988;52.614;13.500;2024-02-28T05:59:07;14.23;;;7.63;;
13834;SDS011;6988;52.614;13.500;2024-02-28T06:03:59;13.90;;;7.13;;
13834;SDS011;6988;52.614;13.500;2024-02-28T06:08:52;13.57;;;8.07;;
13834;SDS011;6988;52.614;13.500;2024-02-28T06:13:46;13.77;;;8.13;;
13834;SDS011;6988;52.614;13.500;2024-02-28T06:18:41;14.47;;;7.87;;
13834;SDS011;6988;52.614;13.500;2024-02-28T06:23:33;14.63;;;7.10;;
13834;SDS011;6988;52.614;13.500;2024-02-28T06:28:24;11.83;;;7.57;;
13834;SDS011;6988;52.614;13.500;2024-02-28T06:33:16;15.37;;;8.43;;
13834;SDS011;6988;52.614;13.500;2024-02-28T06:38:10;14.17;;;8.60;;
13834;SDS011;6988;52.614;13.500;2024-02-28T06:43:02;15.47;;;8.10;;
13834;SDS011;6988;52.614;13.500;2024-02-28T06:47:54;13.30;;;8.37;;
13834;SDS011;6988;52.614;13.500;2024-02-28T06:52:46;13.73;;;7.60;;
13834;SDS011;6988;52.614;13.500;2024-02-28T06:57:40;12.63;;;7.67;;
13834;SDS011;6988;52.614;13.500;2024-02-28T07:02:35;12.13;;;7.80;;
13834;SDS011;6988;52.614;13.500;2024-02-28T07:07:28;11.00;;;7.73;;
13834;SDS011;6988;52.614;13.500;2024-02-28T07:12:20;11.37;;;7.70;;
13834;SDS011;6988;52.614;13.500;2024-02-28T07:17:14;13.33;;;8.27;;
13834;SDS011;6988;52.614;13.500;2024-02-28T07:22:05;12.00;;;7.57;;
13834;SDS011;6988;52.614;13.500;2024-02-28T07:26:57;10.03;;;7.10;;
13834;SDS011;6988;52.614;13.500;2024-02-28T07:31:49;11.63;;;7.70;;
13834;SDS011;6988;52.614;13.500;2024-02-28T07:36:42;14.27;;;8.20;;
13834;SDS011;6988;52.614;13.500;2024-02-28T07:41:34;12.90;;;7.97;;
13834;SDS011;6988;52.614;13.500;2024-02-28T07:46:26;13.60;;;8.53;;
13834;SDS011;6988;52.614;13.500;2024-02-28T07:51:19;12.83;;;8.93;;
13834;SDS011;6988;52.614;13.500;2024-02-28T07:56:16;13.30;;;8.33;;
13834;SDS011;6988;52.614;13.500;2024-02-28T08:01:09;13.20;;;8.60;;
13834;SDS011;6988;52.614;13.500;2024-02-28T08:06:01;14.47;;;8.73;;
13834;SDS011;6988;52.614;13.500;2024-02-28T08:10:53;14.00;;;9.57;;
13834;SDS011;6988;52.614;13.500;2024-02-28T08:15:46;12.93;;;7.93;;
13834;SDS011;6988;52.614;13.500;2024-02-28T08:20:38;12.40;;;8.40;;
13834;SDS011;6988;52.614;13.500;2024-02-28T08:25:30;14.03;;;8.73;;
13834;SDS011;6988;52.614;13.500;2024-02-28T08:30:22;14.57;;;9.60;;
13834;SDS011;6988;52.614;13.500;2024-02-28T08:35:16;15.33;;;10.13;;
13834;SDS011;6988;52.614;13.500;2024-02-28T08:40:10;17.70;;;11.50;;
13834;SDS011;6988;52.614;13.500;2024-02-28T08:45:02;12.87;;;9.13;;
13834;SDS011;6988;52.614;13.500;2024-02-28T08:49:56;16.10;;;10.00;;
13834;SDS011;6988;52.614;13.500;2024-02-28T08:54:49;14.20;;;9.27;;
13834;SDS011;6988;52.614;13.500;2024-02-28T08:59:43;12.47;;;8.20;;
13834;SDS011;6988;52.614;13.500;2024-02-28T09:04:35;11.30;;;7.87;;
13834;SDS011;6988;52.614;13.500;2024-02-28T09:09:27;11.27;;;7.37;;
13834;SDS011;6988;52.614;13.500;2024-02-28T09:14:23;13.73;;;8.83;;
13834;SDS011;6988;52.614;13.500;2024-02-28T09:19:15;12.83;;;8.67;;
13834;SDS011;6988;52.614;13.500;2024-02-28T09:24:07;13.57;;;7.67;;
13834;SDS011;6988;52.614;13.500;2024-02-28T09:28:59;10.60;;;7.40;;
13834;SDS011;6988;52.614;13.500;2024-02-28T09:33:52;10.97;;;6.80;;
13834;SDS011;6988;52.614;13.500;2024-02-28T09:38:44;12.13;;;7.43;;
13834;SDS011;6988;52.614;13.500;2024-02-28T09:43:36;12.80;;;8.13;;
13834;SDS011;6988;52.614;13.500;2024-02-28T09:48:32;9.60;;;6.93;;
13834;SDS011;6988;52.614;13.500;2024-02-28T09:53:25;12.30;;;7.53;;
13834;SDS011;6988;52.614;13.500;2024-02-28T09:58:18;13.10;;;8.00;;
13834;SDS011;6988;52.614;13.500;2024-02-28T10:03:11;12.20;;;8.37;;
13834;SDS011;6988;52.614;13.500;2024-02-28T10:08:08;11.93;;;8.73;;
13834;SDS011;6988;52.614;13.500;2024-02-28T10:13:01;12.47;;;9.43;;
13834;SDS011;6988;52.614;13.500;2024-02-28T10:17:53;15.23;;;9.87;;
13834;SDS011;6988;52.614;13.500;2024-02-28T10:22:45;15.47;;;9.97;;
13834;SDS011;6988;52.614;13.500;2024-02-28T10:27:37;16.27;;;10.03;;
13834;SDS011;6988;52.614;13.500;2024-02-28T10:32:30;17.50;;;10.43;;
13834;SDS011;6988;52.614;13.500;2024-02-28T10:37:23;15.20;;;10.10;;
13834;SDS011;6988;52.614;13.500;2024-02-28T10:42:16;16.47;;;10.70;;
13834;SDS011;6988;52.614;13.500;2024-02-28T10:47:08;15.87;;;10.50;;
13834;SDS011;6988;52.614;13.500;2024-02-28T10:52:03;16.43;;;10.53;;
13834;SDS011;6988;52.614;13.500;2024-02-28T10:56:57;16.90;;;10.90;;
13834;SDS011;6988;52.614;13.500;2024-02-28T11:01:51;18.97;;;12.40;;
13834;SDS011;6988;52.614;13.500;2024-02-28T11:06:49;19.00;;;12.10;;
13834;SDS011;6988;52.614;13.500;2024-02-28T11:11:44;22.00;;;12.63;;
13834;SDS011;6988;52.614;13.500;2024-02-28T11:16:36;19.90;;;12.07;;
13834;SDS011;6988;52.614;13.500;2024-02-28T11:21:28;19.53;;;12.93;;
13834;SDS011;6988;52.614;13.500;2024-02-28T11:26:20;20.13;;;12.27;;
13834;SDS011;6988;52.614;13.500;2024-02-28T11:31:13;19.00;;;12.20;;
13834;SDS011;6988;52.614;13.500;2024-02-28T11:36:06;19.77;;;12.20;;
13834;SDS011;6988;52.614;13.500;2024-02-28T11:40:58;19.37;;;11.87;;
13834;SDS011;6988;52.614;13.500;2024-02-28T11:45:50;17.93;;;11.33;;
13834;SDS011;6988;52.614;13.500;2024-02-28T11:50:46;17.73;;;11.63;;
13834;SDS011;6988;52.614;13.500;2024-02-28T11:55:37;18.57;;;11.33;;
13834;SDS011;6988;52.614;13.500;2024-02-28T12:00:31;18.60;;;12.20;;
13834;SDS011;6988;52.614;13.500;2024-02-28T12:05:23;17.47;;;11.77;;
13834;SDS011;6988;52.614;13.500;2024-02-28T12:10:16;20.10;;;11.60;;
13834;SDS011;6988;52.614;13.500;2024-02-28T12:15:09;17.90;;;11.27;;
13834;SDS011;6988;52.614;13.500;2024-02-28T12:20:01;19.87;;;11.30;;
13834;SDS011;6988;52.614;13.500;2024-02-28T12:24:54;15.50;;;10.43;;
13834;SDS011;6988;52.614;13.500;2024-02-28T12:29:47;17.90;;;11.20;;
13834;SDS011;6988;52.614;13.500;2024-02-28T12:34:39;16.03;;;10.40;;
13834;SDS011;6988;52.614;13.500;2024-02-28T12:39:31;19.00;;;11.27;;
13834;SDS011;6988;52.614;13.500;2024-02-28T12:44:24;17.87;;;10.27;;
13834;SDS011;6988;52.614;13.500;2024-02-28T12:49:17;17.33;;;11.03;;
13834;SDS011;6988;52.614;13.500;2024-02-28T12:54:09;15.03;;;10.10;;
13834;SDS011;6988;52.614;13.500;2024-02-28T12:59:02;13.83;;;9.43;;
13834;SDS011;6988;52.614;13.500;2024-02-28T13:03:56;14.53;;;8.83;;
13834;SDS011;6988;52.614;13.500;2024-02-28T13:08:50;15.03;;;9.83;;
13834;SDS011;6988;52.614;13.500;2024-02-28T13:13:43;14.10;;;9.47;;
13834;SDS011;6988;52.614;13.500;2024-02-28T13:18:34;14.30;;;9.57;;
13834;SDS011;6988;52.614;13.500;2024-02-28T13:23:26;13.23;;;8.60;;
13834;SDS011;6988;52.614;13.500;2024-02-28T13:28:22;14.97;;;8.77;;
13834;SDS011;6988;52.614;13.500;2024-02-28T13:33:19;12.53;;;8.73;;
13834;SDS011;6988;52.614;13.500;2024-02-28T13:38:11;12.00;;;8.07;;
13834;SDS011;6988;52.614;13.500;2024-02-28T13:43:03;13.83;;;8.87;;
13834;SDS011;6988;52.614;13.500;2024-02-28T13:47:57;13.23;;;8.67;;
13834;SDS011;6988;52.614;13.500;2024-02-28T13:52:49;11.13;;;7.50;;
13834;SDS011;6988;52.614;13.500;2024-02-28T13:57:41;13.83;;;8.13;;
13834;SDS011;6988;52.614;13.500;2024-02-28T14:02:33;12.37;;;8.53;;
13834;SDS011;6988;52.614;13.500;2024-02-28T14:07:26;11.77;;;7.77;;
13834;SDS011;6988;52.614;13.500;2024-02-28T14:12:18;11.70;;;8.10;;
13834;SDS011;6988;52.614;13.500;2024-02-28T14:17:11;12.53;;;8.30;;
13834;SDS011;6988;52.614;13.500;2024-02-28T14:22:03;12.63;;;8.07;;
13834;SDS011;6988;52.614;13.500;2024-02-28T14:26:57;12.37;;;8.17;;
13834;SDS011;6988;52.614;13.500;2024-02-28T14:31:49;11.70;;;7.90;;
13834;SDS011;6988;52.614;13.500;2024-02-28T14:36:41;13.10;;;8.10;;
13834;SDS011;6988;52.614;13.500;2024-02-28T14:41:33;14.23;;;8.90;;
13834;SDS011;6988;52.614;13.500;2024-02-28T14:46:27;11.53;;;8.00;;
13834;SDS011;6988;52.614;13.500;2024-02-28T14:51:19;12.30;;;8.57;;
13834;SDS011;6988;52.614;13.500;2024-02-28T14:56:11;12.90;;;8.20;;
13834;SDS011;6988;52.614;13.500;2024-02-28T15:01:06;12.50;;;8.13;;
13834;SDS011;6988;52.614;13.500;2024-02-28T15:06:02;12.90;;;8.33;;
13834;SDS011;6988;52.614;13.500;2024-02-28T15:10:55;13.07;;;9.00;;
13834;SDS011;6988;52.614;13.500;2024-02-28T15:15:47;12.73;;;8.47;;
13834;SDS011;6988;52.614;13.500;2024-02-28T15:20:39;16.43;;;9.43;;
13834;SDS011;6988;52.614;13.500;2024-02-28T15:25:33;14.27;;;9.80;;
13834;SDS011;6988;52.614;13.500;2024-02-28T15:30:25;13.17;;;9.30;;
13834;SDS011;6988;52.614;13.500;2024-02-28T15:35:17;15.17;;;10.17;;
13834;SDS011;6988;52.614;13.500;2024-02-28T15:40:11;16.00;;;9.97;;
13834;SDS011;6988;52.614;13.500;2024-02-28T15:45:04;19.43;;;13.50;;
13834;SDS011;6988;52.614;13.500;2024-02-28T15:49:58;19.73;;;13.60;;
13834;SDS011;6988;52.614;13.500;2024-02-28T15:54:50;19.37;;;15.23;;
13834;SDS011;6988;52.614;13.500;2024-02-28T15:59:42;20.63;;;15.03;;
13834;SDS011;6988;52.614;13.500;2024-02-28T16:04:35;20.73;;;15.07;;
13834;SDS011;6988;52.614;13.500;2024-02-28T16:09:28;18.27;;;14.00;;
13834;SDS011;6988;52.614;13.500;2024-02-28T16:14:20;21.93;;;14.00;;
13834;SDS011;6988;52.614;13.500;2024-02-28T16:19:12;21.70;;;15.67;;
13834;SDS011;6988;52.614;13.500;2024-02-28T16:24:06;21.53;;;14.57;;
13834;SDS011;6988;52.614;13.500;2024-02-28T16:28:58;23.50;;;15.23;;
13834;SDS011;6988;52.614;13.500;2024-02-28T16:33:50;20.67;;;14.17;;
13834;SDS011;6988;52.614;13.500;2024-02-28T16:38:41;19.10;;;13.53;;
13834;SDS011;6988;52.614;13.500;2024-02-28T16:43:35;20.47;;;13.63;;
13834;SDS011;6988;52.614;13.500;2024-02-28T16:48:28;19.50;;;14.00;;
13834;SDS011;6988;52.614;13.500;2024-02-28T16:53:20;21.70;;;14.80;;
13834;SDS011;6988;52.614;13.500;2024-02-28T16:58:12;16.60;;;12.67;;
13834;SDS011;6988;52.614;13.500;2024-02-28T17:03:06;20.27;;;14.70;;
13834;SDS011;6988;52.614;13.500;2024-02-28T17:07:58;19.47;;;14.37;;
13834;SDS011;6988;52.614;13.500;2024-02-28T17:12:50;21.17;;;15.50;;
13834;SDS011;6988;52.614;13.500;2024-02-28T17:17:42;23.97;;;16.50;;
13834;SDS011;6988;52.614;13.500;2024-02-28T17:22:35;28.67;;;18.70;;
13834;SDS011;6988;52.614;13.500;2024-02-28T17:27:27;26.10;;;18.10;;
13834;SDS011;6988;52.614;13.500;2024-02-28T17:32:19;27.50;;;18.17;;
13834;SDS011;6988;52.614;13.500;2024-02-28T17:37:11;26.43;;;17.50;;
13834;SDS011;6988;52.614;13.500;2024-02-28T17:42:07;23.63;;;16.70;;
13834;SDS011;6988;52.614;13.500;2024-02-28T17:46:59;23.50;;;16.40;;
13834;SDS011;6988;52.614;13.500;2024-02-28T17:51:51;24.97;;;17.00;;
13834;SDS011;6988;52.614;13.500;2024-02-28T17:56:44;24.57;;;17.73;;
13834;SDS011;6988;52.614;13.500;2024-02-28T18:01:37;25.40;;;16.57;;
13834;SDS011;6988;52.614;13.500;2024-02-28T18:06:29;21.43;;;15.57;;
13834;SDS011;6988;52.614;13.500;2024-02-28T18:11:25;26.53;;;17.37;;
13834;SDS011;6988;52.614;13.500;2024-02-28T18:21:11;25.37;;;16.93;;
13834;SDS011;6988;52.614;13.500;2024-02-28T18:26:03;25.30;;;18.20;;
13834;SDS011;6988;52.614;13.500;2024-02-28T18:30:55;23.87;;;17.63;;
13834;SDS011;6988;52.614;13.500;2024-02-28T18:35:47;23.50;;;17.57;;
13834;SDS011;6988;52.614;13.500;2024-02-28T18:40:40;28.63;;;19.40;;
13834;SDS011;6988;52.614;13.500;2024-02-28T18:45:32;25.93;;;18.73;;
13834;SDS011;6988;52.614;13.500;2024-02-28T18:50:25;28.77;;;19.90;;
13834;SDS011;6988;52.614;13.500;2024-02-28T18:55:18;26.43;;;19.43;;
13834;SDS011;6988;52.614;13.500;2024-02-28T19:00:16;27.83;;;19.73;;
13834;SDS011;6988;52.614;13.500;2024-02-28T19:05:10;29.60;;;20.77;;
13834;SDS011;6988;52.614;13.500;2024-02-28T19:10:05;25.73;;;19.53;;
13834;SDS011;6988;52.614;13.500;2024-02-28T19:14:58;27.13;;;19.90;;
13834;SDS011;6988;52.614;13.500;2024-02-28T19:19:51;26.93;;;18.03;;
13834;SDS011;6988;52.614;13.500;2024-02-28T19:24:46;26.03;;;19.30;;
13834;SDS011;6988;52.614;13.500;2024-02-28T19:29:38;28.00;;;20.20;;
13834;SDS011;6988;52.614;13.500;2024-02-28T19:34:31;26.13;;;19.10;;
13834;SDS011;6988;52.614;13.500;2024-02-28T19:39:25;29.07;;;20.17;;
13834;SDS011;6988;52.614;13.500;2024-02-28T19:44:16;28.70;;;20.50;;
13834;SDS011;6988;52.614;13.500;2024-02-28T19:49:09;30.77;;;20.37;;
13834;SDS011;6988;52.614;13.500;2024-02-28T19:54:01;29.17;;;20.17;;
13834;SDS011;6988;52.614;13.500;2024-02-28T19:58:55;29.33;;;19.97;;
13834;SDS011;6988;52.614;13.500;2024-02-28T20:03:47;26.30;;;18.90;;
13834;SDS011;6988;52.614;13.500;2024-02-28T20:08:39;31.73;;;21.73;;
13834;SDS011;6988;52.614;13.500;2024-02-28T20:13:31;29.57;;;19.80;;
13834;SDS011;6988;52.614;13.500;2024-02-28T20:18:24;28.27;;;19.50;;
13834;SDS011;6988;52.614;13.500;2024-02-28T20:23:16;28.77;;;20.50;;
13834;SDS011;6988;52.614;13.500;2024-02-28T20:28:08;30.67;;;20.90;;
13834;SDS011;6988;52.614;13.500;2024-02-28T20:33:00;29.83;;;20.83;;
13834;SDS011;6988;52.614;13.500;2024-02-28T20:37:55;30.97;;;21.53;;
13834;SDS011;6988;52.614;13.500;2024-02-28T20:42:47;32.10;;;21.67;;
13834;SDS011;6988;52.614;13.500;2024-02-28T20:47:39;35.43;;;24.20;;
13834;SDS011;6988;52.614;13.500;2024-02-28T20:52:31;36.47;;;24.77;;
13834;SDS011;6988;52.614;13.500;2024-02-28T20:57:24;36.27;;;24.80;;
13834;SDS011;6988;52.614;13.500;2024-02-28T21:02:16;38.93;;;26.93;;
13834;SDS011;6988;52.614;13.500;2024-02-28T21:07:08;41.33;;;27.30;;
13834;SDS011;6988;52.614;13.500;2024-02-28T21:12:03;36.70;;;24.70;;
13834;SDS011;6988;52.614;13.500;2024-02-28T21:16:57;37.03;;;25.07;;
13834;SDS011;6988;52.614;13.500;2024-02-28T21:21:49;35.63;;;23.33;;
13834;SDS011;6988;52.614;13.500;2024-02-28T21:26:41;36.83;;;26.07;;
13834;SDS011;6988;52.614;13.500;2024-02-28T21:31:33;37.73;;;25.27;;
13834;SDS011;6988;52.614;13.500;2024-02-28T21:36:27;39.77;;;25.93;;
13834;SDS011;6988;52.614;13.500;2024-02-28T21:41:21;36.50;;;26.10;;
13834;SDS011;6988;52.614;13.500;2024-02-28T21:46:13;36.27;;;24.13;;
13834;SDS011;6988;52.614;13.500;2024-02-28T21:51:05;36.60;;;24.20;;
13834;SDS011;6988;52.614;13.500;2024-02-28T21:55:58;37.57;;;25.67;;
13834;SDS011;6988;52.614;13.500;2024-02-28T22:00:50;39.47;;;25.93;;
13834;SDS011;6988;52.614;13.500;2024-02-28T22:05:42;39.00;;;25.60;;
13834;SDS011;6988;52.614;13.500;2024-02-28T22:10:34;35.70;;;25.63;;
13834;SDS011;6988;52.614;13.500;2024-02-28T22:15:27;38.20;;;25.87;;
13834;SDS011;6988;52.614;13.500;2024-02-28T22:20:19;38.23;;;25.73;;
13834;SDS011;6988;52.614;13.500;2024-02-28T22:25:12;38.87;;;25.10;;
13834;SDS011;6988;52.614;13.500;2024-02-28T22:30:05;36.93;;;24.30;;
13834;SDS011;6988;52.614;13.500;2024-02-28T22:34:59;38.17;;;24.77;;
13834;SDS011;6988;52.614;13.500;2024-02-28T22:39:51;39.37;;;26.23;;
13834;SDS011;6988;52.614;13.500;2024-02-28T22:44:43;37.73;;;25.57;;
13834;SDS011;6988;52.614;13.500;2024-02-28T23:04:25;43.43;;;30.07;;
13834;SDS011;6988;52.614;13.500;2024-02-28T23:09:17;39.47;;;27.73;;
13834;SDS011;6988;52.614;13.500;2024-02-28T23:14:09;40.20;;;25.83;;
13834;SDS011;6988;52.614;13.500;2024-02-28T23:19:01;42.03;;;26.20;;
13834;SDS011;6988;52.614;13.500;2024-02-28T23:23:55;41.10;;;25.57;;
13834;SDS011;6988;52.614;13.500;2024-02-28T23:28:47;38.07;;;24.40;;
13834;SDS011;6988;52.614;13.500;2024-02-28T23:33:39;40.90;;;24.80;;
13834;SDS011;6988;52.614;13.500;2024-02-28T23:38:31;42.43;;;25.87;;
13834;SDS011;6988;52.614;13.500;2024-02-28T23:43:24;40.90;;;25.60;;
13834;SDS011;6988;52.614;13.500;2024-02-28T23:48:16;43.40;;;26.97;;
13834;SDS011;6988;52.614;13.500;2024-02-28T23:53:08;42.30;;;26.87;;
13834;SDS011;6988;52.614;13.500;2024-02-28T23:58:01;45.33;;;26.63;;
